sensor_id;sensor_type;location;lat;lon;timestamp;pressure;altitude;pressure_sealevel;temperature;humidity
72409;BME280;60402;48.082;11.628;2022-07-25T00:00:11;95314.13;;;20.21;69.14
72409;BME280;60402;48.082;11.628;2022-07-25T00:02:36;95307.84;;;20.17;68.37
72409;BME280;60402;48.082;11.628;2022-07-25T00:05:03;95304.69;;;20.09;68.93
72409;BME280;60402;48.082;11.628;2022-07-25T00:07:28;95296.53;;;20.02;68.85
72409;BME280;60402;48.082;11.628;2022-07-25T00:09:54;95310.69;;;20.17;69.10
72409;BME280;60402;48.082;11.628;2022-07-25T00:12:20;95297.84;;;20.01;69.46
72409;BME280;60402;48.082;11.628;2022-07-25T00:14:45;95287.34;;;19.92;69.41
72409;BME280;60402;48.082;11.628;2022-07-25T00:17:11;95303.59;;;20.07;69.61
72409;BME280;60402;48.082;11.628;2022-07-25T00:19:37;95291.31;;;20.01;69.62
72409;BME280;60402;48.082;11.628;2022-07-25T00:22:02;95301.88;;;19.83;70.48
72409;BME280;60402;48.082;11.628;2022-07-25T00:24:28;95291.09;;;19.67;71.09
72409;BME280;60402;48.082;11.628;2022-07-25T00:26:53;95301.94;;;19.57;71.70
72409;BME280;60402;48.082;11.628;2022-07-25T00:29:19;95310.34;;;19.66;71.49
72409;BME280;60402;48.082;11.628;2022-07-25T00:31:44;95286.28;;;19.53;71.53
72409;BME280;60402;48.082;11.628;2022-07-25T00:34:09;95284.03;;;19.62;71.44
72409;BME280;60402;48.082;11.628;2022-07-25T00:36:35;95299.50;;;19.76;71.40
72409;BME280;60402;48.082;11.628;2022-07-25T00:39:00;95295.31;;;19.72;71.05
72409;BME280;60402;48.082;11.628;2022-07-25T00:41:26;95280.25;;;19.51;71.63
72409;BME280;60402;48.082;11.628;2022-07-25T00:43:51;95279.09;;;19.37;72.46
72409;BME280;60402;48.082;11.628;2022-07-25T00:46:17;95268.63;;;19.02;73.45
72409;BME280;60402;48.082;11.628;2022-07-25T00:48:43;95277.53;;;19.10;73.88
72409;BME280;60402;48.082;11.628;2022-07-25T00:51:09;95266.53;;;19.03;73.58
72409;BME280;60402;48.082;11.628;2022-07-25T00:53:37;95285.84;;;19.08;74.00
72409;BME280;60402;48.082;11.628;2022-07-25T00:56:04;95267.38;;;18.83;74.40
72409;BME280;60402;48.082;11.628;2022-07-25T00:58:30;95285.59;;;19.06;74.73
72409;BME280;60402;48.082;11.628;2022-07-25T01:00:57;95244.25;;;18.86;73.89
72409;BME280;60402;48.082;11.628;2022-07-25T01:03:23;95291.22;;;19.00;74.51
72409;BME280;60402;48.082;11.628;2022-07-25T01:05:48;95282.09;;;18.96;74.68
72409;BME280;60402;48.082;11.628;2022-07-25T01:08:16;95260.81;;;18.77;74.93
72409;BME280;60402;48.082;11.628;2022-07-25T01:10:42;95275.34;;;18.99;74.46
72409;BME280;60402;48.082;11.628;2022-07-25T01:13:08;95267.78;;;18.96;74.34
72409;BME280;60402;48.082;11.628;2022-07-25T01:15:33;95266.97;;;18.96;74.85
72409;BME280;60402;48.082;11.628;2022-07-25T01:17:59;95274.47;;;18.87;75.13
72409;BME280;60402;48.082;11.628;2022-07-25T01:20:25;95254.75;;;18.69;76.40
72409;BME280;60402;48.082;11.628;2022-07-25T01:22:52;95273.50;;;18.70;76.46
72409;BME280;60402;48.082;11.628;2022-07-25T01:25:18;95244.00;;;18.44;76.94
72409;BME280;60402;48.082;11.628;2022-07-25T01:27:44;95254.53;;;18.52;77.17
72409;BME280;60402;48.082;11.628;2022-07-25T01:30:11;95266.53;;;18.56;77.38
72409;BME280;60402;48.082;11.628;2022-07-25T01:32:37;95255.34;;;18.32;77.73
72409;BME280;60402;48.082;11.628;2022-07-25T01:35:04;95237.91;;;18.30;77.60
72409;BME280;60402;48.082;11.628;2022-07-25T01:37:30;95224.75;;;18.18;78.32
72409;BME280;60402;48.082;11.628;2022-07-25T01:39:55;95205.50;;;18.19;77.46
72409;BME280;60402;48.082;11.628;2022-07-25T01:42:20;95231.56;;;18.47;76.75
72409;BME280;60402;48.082;11.628;2022-07-25T01:44:46;95239.88;;;18.45;77.16
72409;BME280;60402;48.082;11.628;2022-07-25T01:47:11;95259.91;;;18.45;77.88
72409;BME280;60402;48.082;11.628;2022-07-25T01:49:36;95240.66;;;18.45;77.10
72409;BME280;60402;48.082;11.628;2022-07-25T01:52:02;95247.28;;;18.57;76.51
72409;BME280;60402;48.082;11.628;2022-07-25T01:54:27;95249.09;;;18.54;76.82
72409;BME280;60402;48.082;11.628;2022-07-25T01:56:53;95223.59;;;18.10;78.42
72409;BME280;60402;48.082;11.628;2022-07-25T01:59:18;95234.03;;;18.33;77.76
72409;BME280;60402;48.082;11.628;2022-07-25T02:01:43;95232.44;;;18.32;77.18
72409;BME280;60402;48.082;11.628;2022-07-25T02:04:09;95223.50;;;18.45;76.13
72409;BME280;60402;48.082;11.628;2022-07-25T02:06:34;95226.63;;;18.47;76.27
72409;BME280;60402;48.082;11.628;2022-07-25T02:09:01;95240.38;;;18.43;77.32
72409;BME280;60402;48.082;11.628;2022-07-25T02:11:27;95209.72;;;18.23;77.04
72409;BME280;60402;48.082;11.628;2022-07-25T02:13:52;95229.47;;;18.21;78.27
72409;BME280;60402;48.082;11.628;2022-07-25T02:16:17;95218.53;;;17.79;80.01
72409;BME280;60402;48.082;11.628;2022-07-25T02:18:43;95227.25;;;17.90;79.24
72409;BME280;60402;48.082;11.628;2022-07-25T02:21:08;95206.72;;;17.92;79.33
72409;BME280;60402;48.082;11.628;2022-07-25T02:23:35;95228.53;;;18.09;78.68
72409;BME280;60402;48.082;11.628;2022-07-25T02:26:00;95225.88;;;18.26;77.66
72409;BME280;60402;48.082;11.628;2022-07-25T02:28:25;95190.44;;;18.18;77.13
72409;BME280;60402;48.082;11.628;2022-07-25T02:30:51;95204.06;;;18.29;77.54
72409;BME280;60402;48.082;11.628;2022-07-25T02:33:16;95202.13;;;18.20;77.75
72409;BME280;60402;48.082;11.628;2022-07-25T02:35:42;95197.22;;;18.00;78.89
72409;BME280;60402;48.082;11.628;2022-07-25T02:38:07;95191.22;;;17.78;79.76
72409;BME280;60402;48.082;11.628;2022-07-25T02:40:32;95197.59;;;18.08;78.17
72409;BME280;60402;48.082;11.628;2022-07-25T02:42:58;95197.91;;;18.16;77.56
72409;BME280;60402;48.082;11.628;2022-07-25T02:45:23;95185.00;;;18.00;78.25
72409;BME280;60402;48.082;11.628;2022-07-25T02:47:49;95209.16;;;18.19;78.54
72409;BME280;60402;48.082;11.628;2022-07-25T02:50:14;95221.72;;;17.86;80.02
72409;BME280;60402;48.082;11.628;2022-07-25T02:52:40;95216.31;;;17.88;79.59
72409;BME280;60402;48.082;11.628;2022-07-25T02:55:05;95207.16;;;17.84;79.60
72409;BME280;60402;48.082;11.628;2022-07-25T02:57:31;95203.94;;;17.77;79.78
72409;BME280;60402;48.082;11.628;2022-07-25T02:59:56;95218.59;;;18.05;78.50
72409;BME280;60402;48.082;11.628;2022-07-25T03:02:22;95171.31;;;17.83;78.30
72409;BME280;60402;48.082;11.628;2022-07-25T03:04:47;95217.22;;;18.21;78.09
72409;BME280;60402;48.082;11.628;2022-07-25T03:07:12;95203.00;;;18.06;77.95
72409;BME280;60402;48.082;11.628;2022-07-25T03:09:38;95228.91;;;18.17;77.57
72409;BME280;60402;48.082;11.628;2022-07-25T03:12:04;95223.66;;;18.16;78.41
72409;BME280;60402;48.082;11.628;2022-07-25T03:14:29;95216.72;;;18.02;79.04
72409;BME280;60402;48.082;11.628;2022-07-25T03:16:54;95226.25;;;17.93;78.99
72409;BME280;60402;48.082;11.628;2022-07-25T03:19:20;95191.94;;;17.93;77.70
72409;BME280;60402;48.082;11.628;2022-07-25T03:21:45;95221.66;;;18.01;77.61
72409;BME280;60402;48.082;11.628;2022-07-25T03:24:11;95200.88;;;18.01;77.17
72409;BME280;60402;48.082;11.628;2022-07-25T03:26:36;95223.41;;;17.93;78.39
72409;BME280;60402;48.082;11.628;2022-07-25T03:29:01;95203.38;;;17.93;78.04
72409;BME280;60402;48.082;11.628;2022-07-25T03:31:27;95223.81;;;17.86;79.19
72409;BME280;60402;48.082;11.628;2022-07-25T03:33:52;95224.09;;;17.88;78.74
72409;BME280;60402;48.082;11.628;2022-07-25T03:36:18;95210.88;;;17.91;78.76
72409;BME280;60402;48.082;11.628;2022-07-25T03:38:43;95205.13;;;17.70;79.96
72409;BME280;60402;48.082;11.628;2022-07-25T03:41:09;95197.59;;;17.73;78.43
72409;BME280;60402;48.082;11.628;2022-07-25T03:43:34;95205.09;;;17.85;79.26
72409;BME280;60402;48.082;11.628;2022-07-25T03:45:59;95202.53;;;17.72;79.67
72409;BME280;60402;48.082;11.628;2022-07-25T03:48:25;95201.50;;;17.55;80.85
72409;BME280;60402;48.082;11.628;2022-07-25T03:50:50;95180.84;;;17.45;80.56
72409;BME280;60402;48.082;11.628;2022-07-25T03:53:15;95210.25;;;17.66;80.09
72409;BME280;60402;48.082;11.628;2022-07-25T03:55:41;95182.09;;;17.59;79.95
72409;BME280;60402;48.082;11.628;2022-07-25T03:58:06;95212.22;;;17.75;79.99
72409;BME280;60402;48.082;11.628;2022-07-25T04:00:31;95188.38;;;17.43;81.67
72409;BME280;60402;48.082;11.628;2022-07-25T04:02:57;95206.56;;;17.45;82.47
72409;BME280;60402;48.082;11.628;2022-07-25T04:05:23;95198.63;;;17.34;82.20
72409;BME280;60402;48.082;11.628;2022-07-25T04:07:48;95211.44;;;17.59;81.41
72409;BME280;60402;48.082;11.628;2022-07-25T04:10:13;95191.25;;;17.63;80.61
72409;BME280;60402;48.082;11.628;2022-07-25T04:12:39;95174.53;;;17.56;80.75
72409;BME280;60402;48.082;11.628;2022-07-25T04:15:04;95204.03;;;18.03;79.41
72409;BME280;60402;48.082;11.628;2022-07-25T04:17:30;95212.38;;;18.06;79.13
72409;BME280;60402;48.082;11.628;2022-07-25T04:19:55;95196.41;;;18.20;77.70
72409;BME280;60402;48.082;11.628;2022-07-25T04:22:21;95179.28;;;18.00;78.72
72409;BME280;60402;48.082;11.628;2022-07-25T04:24:46;95186.41;;;18.10;78.95
72409;BME280;60402;48.082;11.628;2022-07-25T04:27:12;95197.63;;;18.34;78.19
72409;BME280;60402;48.082;11.628;2022-07-25T04:29:37;95178.63;;;18.31;77.30
72409;BME280;60402;48.082;11.628;2022-07-25T04:32:03;95171.81;;;18.28;77.98
72409;BME280;60402;48.082;11.628;2022-07-25T04:34:28;95183.94;;;18.44;77.59
72409;BME280;60402;48.082;11.628;2022-07-25T04:36:54;95178.22;;;18.44;76.79
72409;BME280;60402;48.082;11.628;2022-07-25T04:39:19;95197.50;;;18.69;76.59
72409;BME280;60402;48.082;11.628;2022-07-25T04:41:44;95200.97;;;18.79;76.23
72409;BME280;60402;48.082;11.628;2022-07-25T04:44:10;95188.75;;;18.78;76.20
72409;BME280;60402;48.082;11.628;2022-07-25T04:46:35;95183.50;;;18.77;76.25
72409;BME280;60402;48.082;11.628;2022-07-25T04:49:00;95205.59;;;18.97;75.66
72409;BME280;60402;48.082;11.628;2022-07-25T04:51:26;95176.09;;;18.90;75.33
72409;BME280;60402;48.082;11.628;2022-07-25T04:53:51;95186.59;;;18.99;75.25
72409;BME280;60402;48.082;11.628;2022-07-25T04:56:16;95168.34;;;18.97;75.01
72409;BME280;60402;48.082;11.628;2022-07-25T04:58:42;95152.78;;;19.03;74.41
72409;BME280;60402;48.082;11.628;2022-07-25T05:01:07;95162.44;;;19.06;75.00
72409;BME280;60402;48.082;11.628;2022-07-25T05:03:33;95186.69;;;19.10;75.36
72409;BME280;60402;48.082;11.628;2022-07-25T05:05:58;95176.28;;;19.13;75.05
72409;BME280;60402;48.082;11.628;2022-07-25T05:08:23;95165.25;;;19.37;74.50
72409;BME280;60402;48.082;11.628;2022-07-25T05:10:49;95168.81;;;19.21;74.93
72409;BME280;60402;48.082;11.628;2022-07-25T05:13:14;95180.78;;;19.20;75.46
72409;BME280;60402;48.082;11.628;2022-07-25T05:15:40;95133.94;;;19.65;72.76
72409;BME280;60402;48.082;11.628;2022-07-25T05:18:05;95144.00;;;19.98;71.66
72409;BME280;60402;48.082;11.628;2022-07-25T05:20:31;95165.91;;;20.01;72.05
72409;BME280;60402;48.082;11.628;2022-07-25T05:22:56;95140.88;;;19.96;71.53
72409;BME280;60402;48.082;11.628;2022-07-25T05:25:21;95164.72;;;19.71;73.12
72409;BME280;60402;48.082;11.628;2022-07-25T05:27:47;95156.19;;;19.82;73.30
72409;BME280;60402;48.082;11.628;2022-07-25T05:30:12;95152.31;;;19.90;73.02
72409;BME280;60402;48.082;11.628;2022-07-25T05:32:39;95171.25;;;20.36;71.60
72409;BME280;60402;48.082;11.628;2022-07-25T05:35:06;95177.25;;;20.33;71.52
72409;BME280;60402;48.082;11.628;2022-07-25T05:37:35;95175.19;;;20.45;71.30
72409;BME280;60402;48.082;11.628;2022-07-25T05:40:01;95164.69;;;20.25;72.16
72409;BME280;60402;48.082;11.628;2022-07-25T05:42:27;95166.28;;;20.31;72.16
72409;BME280;60402;48.082;11.628;2022-07-25T05:44:52;95154.88;;;20.54;71.12
72409;BME280;60402;48.082;11.628;2022-07-25T05:47:18;95173.47;;;20.75;70.88
72409;BME280;60402;48.082;11.628;2022-07-25T05:49:43;95165.09;;;20.88;70.14
72409;BME280;60402;48.082;11.628;2022-07-25T05:52:09;95165.63;;;20.87;70.46
72409;BME280;60402;48.082;11.628;2022-07-25T05:54:34;95173.22;;;21.24;69.38
72409;BME280;60402;48.082;11.628;2022-07-25T05:57:00;95151.28;;;21.37;68.17
72409;BME280;60402;48.082;11.628;2022-07-25T05:59:25;95154.13;;;21.65;67.64
72409;BME280;60402;48.082;11.628;2022-07-25T06:01:51;95165.25;;;21.97;67.08
72409;BME280;60402;48.082;11.628;2022-07-25T06:04:16;95157.63;;;22.22;65.50
72409;BME280;60402;48.082;11.628;2022-07-25T06:06:42;95152.53;;;22.39;64.56
72409;BME280;60402;48.082;11.628;2022-07-25T06:09:07;95156.16;;;22.51;63.97
72409;BME280;60402;48.082;11.628;2022-07-25T06:11:32;95143.22;;;22.69;63.63
72409;BME280;60402;48.082;11.628;2022-07-25T06:13:58;95159.03;;;22.98;63.02
72409;BME280;60402;48.082;11.628;2022-07-25T06:16:23;95143.44;;;25.61;54.91
72409;BME280;60402;48.082;11.628;2022-07-25T06:18:48;95159.53;;;25.11;56.23
72409;BME280;60402;48.082;11.628;2022-07-25T06:21:14;95154.72;;;24.44;57.48
72409;BME280;60402;48.082;11.628;2022-07-25T06:23:39;95161.56;;;24.79;57.09
72409;BME280;60402;48.082;11.628;2022-07-25T06:26:08;95149.97;;;24.22;58.51
72409;BME280;60402;48.082;11.628;2022-07-25T06:28:33;95139.50;;;24.62;57.87
72409;BME280;60402;48.082;11.628;2022-07-25T06:30:59;95155.75;;;26.20;53.27
72409;BME280;60402;48.082;11.628;2022-07-25T06:33:24;95163.91;;;26.09;53.88
72409;BME280;60402;48.082;11.628;2022-07-25T06:35:49;95162.00;;;25.85;54.54
72409;BME280;60402;48.082;11.628;2022-07-25T06:38:15;95150.88;;;26.29;53.29
72409;BME280;60402;48.082;11.628;2022-07-25T06:40:40;95155.44;;;27.11;50.76
72409;BME280;60402;48.082;11.628;2022-07-25T06:43:05;95145.22;;;30.94;41.07
72409;BME280;60402;48.082;11.628;2022-07-25T06:45:31;95155.41;;;32.08;38.28
72409;BME280;60402;48.082;11.628;2022-07-25T06:47:56;95132.09;;;28.73;45.05
72409;BME280;60402;48.082;11.628;2022-07-25T06:50:21;95125.69;;;28.67;45.24
72409;BME280;60402;48.082;11.628;2022-07-25T06:52:47;95140.28;;;28.10;46.74
72409;BME280;60402;48.082;11.628;2022-07-25T06:55:14;95140.66;;;28.35;46.24
72409;BME280;60402;48.082;11.628;2022-07-25T06:57:40;95136.19;;;28.05;47.55
72409;BME280;60402;48.082;11.628;2022-07-25T07:00:08;95147.38;;;28.30;47.20
72409;BME280;60402;48.082;11.628;2022-07-25T07:02:46;95146.50;;;28.42;46.56
72409;BME280;60402;48.082;11.628;2022-07-25T07:05:11;95141.66;;;28.81;46.24
72409;BME280;60402;48.082;11.628;2022-07-25T07:07:37;95119.50;;;29.29;44.22
72409;BME280;60402;48.082;11.628;2022-07-25T07:10:03;95127.94;;;29.79;44.05
72409;BME280;60402;48.082;11.628;2022-07-25T07:12:28;95128.44;;;30.54;41.76
72409;BME280;60402;48.082;11.628;2022-07-25T07:14:53;95139.06;;;31.55;40.22
72409;BME280;60402;48.082;11.628;2022-07-25T07:17:19;95121.81;;;33.65;35.29
72409;BME280;60402;48.082;11.628;2022-07-25T07:19:44;95144.97;;;35.61;32.35
72409;BME280;60402;48.082;11.628;2022-07-25T07:22:10;95141.94;;;40.80;24.15
72409;BME280;60402;48.082;11.628;2022-07-25T07:24:35;95134.28;;;42.69;22.05
72409;BME280;60402;48.082;11.628;2022-07-25T07:27:01;95145.06;;;42.94;21.66
72409;BME280;60402;48.082;11.628;2022-07-25T07:29:27;95149.72;;;43.15;21.45
72409;BME280;60402;48.082;11.628;2022-07-25T07:31:53;95137.34;;;43.20;20.87
72409;BME280;60402;48.082;11.628;2022-07-25T07:34:18;95130.44;;;44.60;19.40
72409;BME280;60402;48.082;11.628;2022-07-25T07:36:43;95120.97;;;44.26;19.92
72409;BME280;60402;48.082;11.628;2022-07-25T07:39:09;95152.00;;;45.38;19.07
72409;BME280;60402;48.082;11.628;2022-07-25T07:41:34;95147.53;;;45.81;18.66
72409;BME280;60402;48.082;11.628;2022-07-25T07:43:59;95152.28;;;44.85;19.30
72409;BME280;60402;48.082;11.628;2022-07-25T07:46:25;95150.53;;;45.18;19.02
72409;BME280;60402;48.082;11.628;2022-07-25T07:48:50;95131.06;;;45.36;18.71
72409;BME280;60402;48.082;11.628;2022-07-25T07:51:15;95144.25;;;45.73;18.86
72409;BME280;60402;48.082;11.628;2022-07-25T07:53:41;95129.75;;;46.07;17.95
72409;BME280;60402;48.082;11.628;2022-07-25T07:56:25;95142.59;;;46.12;18.56
72409;BME280;60402;48.082;11.628;2022-07-25T07:58:50;95145.09;;;45.54;18.55
72409;BME280;60402;48.082;11.628;2022-07-25T08:01:16;95147.13;;;45.91;18.39
72409;BME280;60402;48.082;11.628;2022-07-25T08:03:42;95142.00;;;46.63;17.76
72409;BME280;60402;48.082;11.628;2022-07-25T08:06:07;95132.38;;;45.53;18.63
72409;BME280;60402;48.082;11.628;2022-07-25T08:08:32;95153.97;;;46.18;18.28
72409;BME280;60402;48.082;11.628;2022-07-25T08:10:58;95128.00;;;44.55;19.23
72409;BME280;60402;48.082;11.628;2022-07-25T08:13:27;95144.47;;;45.57;18.86
72409;BME280;60402;48.082;11.628;2022-07-25T08:15:58;95143.97;;;44.44;19.75
72409;BME280;60402;48.082;11.628;2022-07-25T08:18:25;95128.63;;;45.97;18.33
72409;BME280;60402;48.082;11.628;2022-07-25T08:20:51;95130.81;;;44.31;19.65
72409;BME280;60402;48.082;11.628;2022-07-25T08:23:17;95111.78;;;45.61;18.79
72409;BME280;60402;48.082;11.628;2022-07-25T08:25:43;95118.19;;;45.74;18.21
72409;BME280;60402;48.082;11.628;2022-07-25T08:28:09;95122.16;;;46.26;18.81
72409;BME280;60402;48.082;11.628;2022-07-25T08:30:35;95114.13;;;44.81;19.27
72409;BME280;60402;48.082;11.628;2022-07-25T08:33:03;95116.56;;;44.47;19.63
72409;BME280;60402;48.082;11.628;2022-07-25T08:35:30;95128.38;;;42.86;20.80
72409;BME280;60402;48.082;11.628;2022-07-25T08:37:57;95120.03;;;39.40;25.15
72409;BME280;60402;48.082;11.628;2022-07-25T08:40:24;95116.63;;;38.83;26.07
72409;BME280;60402;48.082;11.628;2022-07-25T08:42:50;95093.94;;;38.03;26.51
72409;BME280;60402;48.082;11.628;2022-07-25T08:45:17;95109.78;;;37.30;28.20
72409;BME280;60402;48.082;11.628;2022-07-25T08:47:45;95071.28;;;37.49;27.81
72409;BME280;60402;48.082;11.628;2022-07-25T08:50:14;95099.16;;;37.81;27.55
72409;BME280;60402;48.082;11.628;2022-07-25T08:52:42;95083.94;;;38.32;27.02
72409;BME280;60402;48.082;11.628;2022-07-25T08:55:10;95100.84;;;37.96;27.62
72409;BME280;60402;48.082;11.628;2022-07-25T08:57:37;95098.13;;;35.94;29.72
72409;BME280;60402;48.082;11.628;2022-07-25T09:00:06;95097.00;;;37.37;28.63
72409;BME280;60402;48.082;11.628;2022-07-25T09:02:32;95102.22;;;37.72;27.13
72409;BME280;60402;48.082;11.628;2022-07-25T09:04:58;95083.72;;;37.15;27.51
72409;BME280;60402;48.082;11.628;2022-07-25T09:07:31;95084.47;;;36.82;28.67
72409;BME280;60402;48.082;11.628;2022-07-25T09:09:57;95078.81;;;37.07;28.29
72409;BME280;60402;48.082;11.628;2022-07-25T09:12:28;95081.63;;;36.84;28.21
72409;BME280;60402;48.082;11.628;2022-07-25T09:14:54;95082.59;;;36.13;29.62
72409;BME280;60402;48.082;11.628;2022-07-25T09:17:19;95076.81;;;36.24;29.15
72409;BME280;60402;48.082;11.628;2022-07-25T09:19:52;95079.03;;;36.35;28.30
72409;BME280;60402;48.082;11.628;2022-07-25T09:22:18;95082.31;;;35.68;29.19
72409;BME280;60402;48.082;11.628;2022-07-25T09:24:44;95068.56;;;35.61;29.54
72409;BME280;60402;48.082;11.628;2022-07-25T09:27:09;95076.41;;;35.77;29.38
72409;BME280;60402;48.082;11.628;2022-07-25T09:29:38;95079.13;;;35.95;29.29
72409;BME280;60402;48.082;11.628;2022-07-25T09:32:17;95070.09;;;35.11;29.68
72409;BME280;60402;48.082;11.628;2022-07-25T09:34:46;95058.56;;;35.44;29.24
72409;BME280;60402;48.082;11.628;2022-07-25T09:37:13;95064.47;;;35.34;29.36
72409;BME280;60402;48.082;11.628;2022-07-25T09:45:06;95070.53;;;35.77;28.78
72409;BME280;60402;48.082;11.628;2022-07-25T09:47:36;95062.09;;;35.43;28.65
72409;BME280;60402;48.082;11.628;2022-07-25T09:50:04;95059.94;;;35.63;28.40
72409;BME280;60402;48.082;11.628;2022-07-25T09:52:30;95046.09;;;35.15;29.10
72409;BME280;60402;48.082;11.628;2022-07-25T09:54:55;95059.13;;;35.02;27.13
72409;BME280;60402;48.082;11.628;2022-07-25T09:57:22;95045.56;;;34.97;27.21
72409;BME280;60402;48.082;11.628;2022-07-25T09:59:50;95060.38;;;34.70;27.79
72409;BME280;60402;48.082;11.628;2022-07-25T10:07:49;95043.94;;;34.18;27.18
72409;BME280;60402;48.082;11.628;2022-07-25T10:13:08;95045.69;;;34.41;28.52
72409;BME280;60402;48.082;11.628;2022-07-25T10:15:41;95033.94;;;34.21;27.71
72409;BME280;60402;48.082;11.628;2022-07-25T10:18:08;95048.72;;;34.04;28.92
72409;BME280;60402;48.082;11.628;2022-07-25T10:20:34;95040.25;;;34.08;28.12
72409;BME280;60402;48.082;11.628;2022-07-25T10:23:00;95043.41;;;33.83;28.14
72409;BME280;60402;48.082;11.628;2022-07-25T10:25:25;95034.59;;;33.83;28.86
72409;BME280;60402;48.082;11.628;2022-07-25T10:27:53;95027.56;;;34.05;28.67
72409;BME280;60402;48.082;11.628;2022-07-25T10:30:37;95016.78;;;34.18;28.62
72409;BME280;60402;48.082;11.628;2022-07-25T10:33:16;95025.63;;;34.47;28.10
72409;BME280;60402;48.082;11.628;2022-07-25T10:35:43;95038.69;;;33.97;28.25
72409;BME280;60402;48.082;11.628;2022-07-25T10:38:10;95031.59;;;34.10;28.52
72409;BME280;60402;48.082;11.628;2022-07-25T10:40:37;95041.03;;;34.18;28.62
72409;BME280;60402;48.082;11.628;2022-07-25T10:43:21;95026.34;;;34.18;28.80
72409;BME280;60402;48.082;11.628;2022-07-25T10:45:56;95017.72;;;34.30;27.77
72409;BME280;60402;48.082;11.628;2022-07-25T10:48:26;95001.06;;;34.23;28.51
72409;BME280;60402;48.082;11.628;2022-07-25T10:50:58;94993.34;;;34.27;28.22
72409;BME280;60402;48.082;11.628;2022-07-25T10:53:47;95012.34;;;34.55;27.98
72409;BME280;60402;48.082;11.628;2022-07-25T10:56:18;95019.59;;;34.64;27.97
72409;BME280;60402;48.082;11.628;2022-07-25T10:58:48;95016.81;;;34.56;27.52
72409;BME280;60402;48.082;11.628;2022-07-25T11:01:39;94997.22;;;34.49;27.65
72409;BME280;60402;48.082;11.628;2022-07-25T11:04:14;95006.47;;;34.36;27.98
72409;BME280;60402;48.082;11.628;2022-07-25T11:06:41;94998.28;;;34.44;28.42
72409;BME280;60402;48.082;11.628;2022-07-25T11:09:27;94994.41;;;34.32;28.46
72409;BME280;60402;48.082;11.628;2022-07-25T11:11:55;94993.22;;;34.54;26.83
72409;BME280;60402;48.082;11.628;2022-07-25T11:14:24;95003.34;;;34.92;26.57
72409;BME280;60402;48.082;11.628;2022-07-25T11:16:52;94995.03;;;34.79;24.53
72409;BME280;60402;48.082;11.628;2022-07-25T11:19:22;94997.47;;;34.92;24.13
72409;BME280;60402;48.082;11.628;2022-07-25T11:21:57;94997.97;;;34.69;24.72
72409;BME280;60402;48.082;11.628;2022-07-25T11:24:39;94996.91;;;34.55;24.15
72409;BME280;60402;48.082;11.628;2022-07-25T11:27:06;94985.00;;;34.33;24.33
72409;BME280;60402;48.082;11.628;2022-07-25T11:29:33;94970.06;;;34.58;22.91
72409;BME280;60402;48.082;11.628;2022-07-25T11:32:02;94978.66;;;34.66;23.94
72409;BME280;60402;48.082;11.628;2022-07-25T11:34:29;94975.41;;;34.43;23.56
72409;BME280;60402;48.082;11.628;2022-07-25T11:36:56;94987.63;;;34.68;23.92
72409;BME280;60402;48.082;11.628;2022-07-25T11:39:28;94982.19;;;34.84;23.78
72409;BME280;60402;48.082;11.628;2022-07-25T11:41:58;94972.69;;;34.54;23.54
72409;BME280;60402;48.082;11.628;2022-07-25T11:44:36;94965.56;;;34.57;24.07
72409;BME280;60402;48.082;11.628;2022-07-25T11:47:04;94976.94;;;34.92;24.00
72409;BME280;60402;48.082;11.628;2022-07-25T11:49:29;94981.88;;;34.90;22.59
72409;BME280;60402;48.082;11.628;2022-07-25T11:51:55;94981.41;;;34.93;21.81
72409;BME280;60402;48.082;11.628;2022-07-25T11:54:20;94980.19;;;34.87;22.55
72409;BME280;60402;48.082;11.628;2022-07-25T11:56:46;94966.34;;;34.68;22.20
72409;BME280;60402;48.082;11.628;2022-07-25T11:59:11;94969.34;;;34.89;22.64
72409;BME280;60402;48.082;11.628;2022-07-25T12:01:39;94969.22;;;34.97;21.97
72409;BME280;60402;48.082;11.628;2022-07-25T12:04:11;94973.06;;;34.90;22.40
72409;BME280;60402;48.082;11.628;2022-07-25T12:06:39;94963.81;;;34.83;21.75
72409;BME280;60402;48.082;11.628;2022-07-25T12:09:16;94972.56;;;35.13;21.95
72409;BME280;60402;48.082;11.628;2022-07-25T12:11:42;94992.22;;;35.00;22.29
72409;BME280;60402;48.082;11.628;2022-07-25T12:14:08;94983.91;;;34.87;22.48
72409;BME280;60402;48.082;11.628;2022-07-25T12:16:35;94974.34;;;34.67;22.20
72409;BME280;60402;48.082;11.628;2022-07-25T12:19:01;94977.28;;;34.57;22.41
72409;BME280;60402;48.082;11.628;2022-07-25T12:21:26;94956.91;;;34.69;22.28
72409;BME280;60402;48.082;11.628;2022-07-25T12:23:52;94949.63;;;34.70;22.77
72409;BME280;60402;48.082;11.628;2022-07-25T12:26:18;94946.31;;;34.95;23.14
72409;BME280;60402;48.082;11.628;2022-07-25T12:28:43;94948.66;;;34.97;22.50
72409;BME280;60402;48.082;11.628;2022-07-25T12:31:08;94946.16;;;35.03;22.42
72409;BME280;60402;48.082;11.628;2022-07-25T12:33:34;94940.81;;;34.80;23.05
72409;BME280;60402;48.082;11.628;2022-07-25T12:36:00;94943.56;;;34.88;23.22
72409;BME280;60402;48.082;11.628;2022-07-25T12:38:25;94919.34;;;34.77;23.35
72409;BME280;60402;48.082;11.628;2022-07-25T12:40:51;94927.50;;;34.89;23.35
72409;BME280;60402;48.082;11.628;2022-07-25T12:43:17;94933.28;;;35.18;23.37
72409;BME280;60402;48.082;11.628;2022-07-25T12:45:42;94927.03;;;35.02;23.47
72409;BME280;60402;48.082;11.628;2022-07-25T12:48:08;94910.81;;;35.01;23.24
72409;BME280;60402;48.082;11.628;2022-07-25T12:50:34;94927.66;;;34.81;22.68
72409;BME280;60402;48.082;11.628;2022-07-25T12:52:59;94924.88;;;34.83;23.39
72409;BME280;60402;48.082;11.628;2022-07-25T12:55:25;94924.69;;;34.91;22.83
72409;BME280;60402;48.082;11.628;2022-07-25T12:57:51;94938.59;;;34.90;23.05
72409;BME280;60402;48.082;11.628;2022-07-25T13:00:19;94928.75;;;34.76;22.87